sensor_id;sensor_type;location;lat;lon;timestamp;pressure;altitude;pressure_sealevel;temperature;humidity
71964;BME280;59834;52.124;5.422;2023-03-21T00:00:22;101681.66;;;8.61;100.00
71964;BME280;59834;52.124;5.422;2023-03-21T00:02:49;101671.22;;;8.61;100.00
71964;BME280;59834;52.124;5.422;2023-03-21T00:05:15;101675.59;;;8.61;100.00
71964;BME280;59834;52.124;5.422;2023-03-21T00:07:42;101672.22;;;8.59;100.00
71964;BME280;59834;52.124;5.422;2023-03-21T00:10:09;101672.22;;;8.59;100.00
71964;BME280;59834;52.124;5.422;2023-03-21T00:12:43;101669.53;;;8.60;100.00
71964;BME280;59834;52.124;5.422;2023-03-21T00:15:11;101666.13;;;8.58;100.00
71964;BME280;59834;52.124;5.422;2023-03-21T00:17:38;101669.59;;;8.59;100.00
71964;BME280;59834;52.124;5.422;2023-03-21T00:20:06;101662.66;;;8.58;100.00
71964;BME280;59834;52.124;5.422;2023-03-21T00:22:40;101665.28;;;8.58;100.00
71964;BME280;59834;52.124;5.422;2023-03-21T00:25:08;101662.66;;;8.58;100.00
71964;BME280;59834;52.124;5.422;2023-03-21T00:27:36;101661.06;;;8.55;100.00
71964;BME280;59834;52.124;5.422;2023-03-21T00:30:22;101658.44;;;8.55;100.00
71964;BME280;59834;52.124;5.422;2023-03-21T00:32:49;101660.19;;;8.55;100.00
71964;BME280;59834;52.124;5.422;2023-03-21T00:35:22;101660.19;;;8.55;100.00
71964;BME280;59834;52.124;5.422;2023-03-21T00:38:09;101659.28;;;8.56;100.00
71964;BME280;59834;52.124;5.422;2023-03-21T00:40:36;101660.19;;;8.55;100.00
71964;BME280;59834;52.124;5.422;2023-03-21T00:43:14;101654.13;;;8.54;100.00
71964;BME280;59834;52.124;5.422;2023-03-21T00:45:45;101653.28;;;8.54;100.00
71964;BME280;59834;52.124;5.422;2023-03-21T00:48:12;101657.78;;;8.50;100.00
71964;BME280;59834;52.124;5.422;2023-03-21T00:50:39;101649.03;;;8.51;100.00
71964;BME280;59834;52.124;5.422;2023-03-21T00:53:06;101646.50;;;8.49;100.00
71964;BME280;59834;52.124;5.422;2023-03-21T00:55:33;101651.63;;;8.51;100.00
71964;BME280;59834;52.124;5.422;2023-03-21T00:57:59;101648.25;;;8.49;100.00
71964;BME280;59834;52.124;5.422;2023-03-21T01:00:28;101639.63;;;8.47;100.00
71964;BME280;59834;52.124;5.422;2023-03-21T01:02:55;101632.66;;;8.47;100.00
71964;BME280;59834;52.124;5.422;2023-03-21T01:05:32;101628.34;;;8.46;100.00
71964;BME280;59834;52.124;5.422;2023-03-21T01:08:19;101620.53;;;8.46;100.00
71964;BME280;59834;52.124;5.422;2023-03-21T01:10:55;101617.00;;;8.47;100.00
71964;BME280;59834;52.124;5.422;2023-03-21T01:13:24;101615.31;;;8.46;100.00
71964;BME280;59834;52.124;5.422;2023-03-21T01:15:54;101615.31;;;8.46;100.00
71964;BME280;59834;52.124;5.422;2023-03-21T01:18:23;101613.63;;;8.45;100.00
71964;BME280;59834;52.124;5.422;2023-03-21T01:20:53;101614.50;;;8.44;100.00
71964;BME280;59834;52.124;5.422;2023-03-21T01:23:20;101606.69;;;8.44;100.00
71964;BME280;59834;52.124;5.422;2023-03-21T01:25:47;101611.91;;;8.44;100.00
71964;BME280;59834;52.124;5.422;2023-03-21T01:28:14;101606.69;;;8.44;100.00
71964;BME280;59834;52.124;5.422;2023-03-21T01:30:48;101604.06;;;8.44;100.00
71964;BME280;59834;52.124;5.422;2023-03-21T01:33:16;101595.41;;;8.44;100.00
71964;BME280;59834;52.124;5.422;2023-03-21T01:35:43;101598.84;;;8.44;100.00
71964;BME280;59834;52.124;5.422;2023-03-21T01:38:18;101602.31;;;8.45;100.00
71964;BME280;59834;52.124;5.422;2023-03-21T01:40:47;101602.38;;;8.43;100.00
71964;BME280;59834;52.124;5.422;2023-03-21T01:43:23;101592.88;;;8.42;100.00
71964;BME280;59834;52.124;5.422;2023-03-21T01:46:16;101593.78;;;8.41;100.00
71964;BME280;59834;52.124;5.422;2023-03-21T01:48:59;101595.50;;;8.42;100.00
71964;BME280;59834;52.124;5.422;2023-03-21T01:51:28;101585.09;;;8.41;100.00
71964;BME280;59834;52.124;5.422;2023-03-21T01:53:56;101586.03;;;8.40;100.00
71964;BME280;59834;52.124;5.422;2023-03-21T01:56:23;101586.06;;;8.38;100.00
71964;BME280;59834;52.124;5.422;2023-03-21T01:58:53;101584.34;;;8.39;100.00
71964;BME280;59834;52.124;5.422;2023-03-21T02:01:21;101573.91;;;8.37;100.00
71964;BME280;59834;52.124;5.422;2023-03-21T02:03:48;101571.38;;;8.36;100.00
71964;BME280;59834;52.124;5.422;2023-03-21T02:06:28;101572.22;;;8.36;100.00
71964;BME280;59834;52.124;5.422;2023-03-21T02:09:03;101558.41;;;8.34;100.00
71964;BME280;59834;52.124;5.422;2023-03-21T02:11:30;101556.72;;;8.33;100.00
71964;BME280;59834;52.124;5.422;2023-03-21T02:13:57;101558.41;;;8.34;100.00
71964;BME280;59834;52.124;5.422;2023-03-21T02:16:35;101553.25;;;8.33;100.00
71964;BME280;59834;52.124;5.422;2023-03-21T02:24:58;101548.97;;;8.32;100.00
71964;BME280;59834;52.124;5.422;2023-03-21T02:27:51;101546.41;;;8.30;100.00
71964;BME280;59834;52.124;5.422;2023-03-21T02:38:50;101535.13;;;8.30;100.00
71964;BME280;59834;52.124;5.422;2023-03-21T02:41:23;101535.03;;;8.31;100.00
71964;BME280;59834;52.124;5.422;2023-03-21T02:46:58;101530.75;;;8.30;100.00
71964;BME280;59834;52.124;5.422;2023-03-21T02:49:38;101536.81;;;8.31;100.00
71964;BME280;59834;52.124;5.422;2023-03-21T02:52:13;101525.50;;;8.32;100.00
71964;BME280;59834;52.124;5.422;2023-03-21T02:55:02;101524.56;;;8.33;100.00
71964;BME280;59834;52.124;5.422;2023-03-21T02:57:30;101518.50;;;8.32;100.00
71964;BME280;59834;52.124;5.422;2023-03-21T03:00:09;101517.66;;;8.32;100.00
71964;BME280;59834;52.124;5.422;2023-03-21T03:02:42;101521.03;;;8.34;100.00
71964;BME280;59834;52.124;5.422;2023-03-21T03:05:14;101515.81;;;8.34;100.00
71964;BME280;59834;52.124;5.422;2023-03-21T03:10:26;101516.66;;;8.34;100.00
71964;BME280;59834;52.124;5.422;2023-03-21T03:16:36;101519.28;;;8.34;100.00
71964;BME280;59834;52.124;5.422;2023-03-21T03:18:59;101514.06;;;8.34;100.00
71964;BME280;59834;52.124;5.422;2023-03-21T03:21:39;101512.25;;;8.36;100.00
71964;BME280;59834;52.124;5.422;2023-03-21T03:24:17;101514.91;;;8.35;100.00
71964;BME280;59834;52.124;5.422;2023-03-21T03:27:03;101520.06;;;8.36;100.00
71964;BME280;59834;52.124;5.422;2023-03-21T03:29:33;101512.28;;;8.35;100.00
71964;BME280;59834;52.124;5.422;2023-03-21T03:32:16;101512.28;;;8.35;100.00
71964;BME280;59834;52.124;5.422;2023-03-21T03:34:49;101509.69;;;8.35;100.00
71964;BME280;59834;52.124;5.422;2023-03-21T03:37:19;101507.94;;;8.35;100.00
71964;BME280;59834;52.124;5.422;2023-03-21T03:40:05;101509.69;;;8.35;100.00
71964;BME280;59834;52.124;5.422;2023-03-21T03:42:50;101503.56;;;8.36;100.00
71964;BME280;59834;52.124;5.422;2023-03-21T03:45:19;101500.16;;;8.34;100.00
71964;BME280;59834;52.124;5.422;2023-03-21T03:47:58;101506.31;;;8.33;100.00
71964;BME280;59834;52.124;5.422;2023-03-21T03:50:55;101499.31;;;8.33;100.00
71964;BME280;59834;52.124;5.422;2023-03-21T03:56:04;101499.47;;;8.30;100.00
71964;BME280;59834;52.124;5.422;2023-03-21T03:58:33;101498.53;;;8.31;100.00
71964;BME280;59834;52.124;5.422;2023-03-21T04:01:10;101495.09;;;8.31;100.00
71964;BME280;59834;52.124;5.422;2023-03-21T04:03:39;101492.56;;;8.29;100.00
71964;BME280;59834;52.124;5.422;2023-03-21T04:06:17;101489.94;;;8.29;100.00
71964;BME280;59834;52.124;5.422;2023-03-21T04:08:43;101494.25;;;8.30;100.00
71964;BME280;59834;52.124;5.422;2023-03-21T04:11:13;101487.25;;;8.31;100.00
71964;BME280;59834;52.124;5.422;2023-03-21T04:13:41;101494.25;;;8.30;100.00
71964;BME280;59834;52.124;5.422;2023-03-21T04:16:09;101481.19;;;8.30;100.00
71964;BME280;59834;52.124;5.422;2023-03-21T04:18:37;101485.56;;;8.30;100.00
71964;BME280;59834;52.124;5.422;2023-03-21T04:21:11;101489.03;;;8.30;100.00
71964;BME280;59834;52.124;5.422;2023-03-21T04:23:39;101478.72;;;8.27;100.00
71964;BME280;59834;52.124;5.422;2023-03-21T04:26:06;101484.78;;;8.27;100.00
71964;BME280;59834;52.124;5.422;2023-03-21T04:28:33;101477.81;;;8.28;100.00
71964;BME280;59834;52.124;5.422;2023-03-21T04:31:06;101480.41;;;8.28;100.00
71964;BME280;59834;52.124;5.422;2023-03-21T04:33:50;101483.94;;;8.27;100.00
71964;BME280;59834;52.124;5.422;2023-03-21T04:36:17;101483.09;;;8.26;100.00
71964;BME280;59834;52.124;5.422;2023-03-21T04:39:05;101481.34;;;8.27;100.00
71964;BME280;59834;52.124;5.422;2023-03-21T04:41:42;101475.28;;;8.26;100.00
71964;BME280;59834;52.124;5.422;2023-03-21T04:44:10;101478.72;;;8.27;100.00
71964;BME280;59834;52.124;5.422;2023-03-21T04:46:37;101475.19;;;8.28;100.00
71964;BME280;59834;52.124;5.422;2023-03-21T04:49:04;101471.69;;;8.29;100.00
71964;BME280;59834;52.124;5.422;2023-03-21T04:51:32;101472.59;;;8.28;100.00
71964;BME280;59834;52.124;5.422;2023-03-21T04:53:59;101476.19;;;8.25;100.00
71964;BME280;59834;52.124;5.422;2023-03-21T04:56:27;101469.22;;;8.26;100.00
71964;BME280;59834;52.124;5.422;2023-03-21T04:58:59;101467.53;;;8.25;100.00
71964;BME280;59834;52.124;5.422;2023-03-21T05:01:26;101464.13;;;8.23;100.00
71964;BME280;59834;52.124;5.422;2023-03-21T05:03:57;101464.19;;;8.21;100.00
71964;BME280;59834;52.124;5.422;2023-03-21T05:06:24;101468.56;;;8.21;100.00
71964;BME280;59834;52.124;5.422;2023-03-21T05:08:51;101468.56;;;8.21;100.00
71964;BME280;59834;52.124;5.422;2023-03-21T05:11:18;101474.69;;;8.20;100.00
71964;BME280;59834;52.124;5.422;2023-03-21T05:13:44;101474.69;;;8.20;100.00
71964;BME280;59834;52.124;5.422;2023-03-21T05:16:11;101472.09;;;8.20;100.00
71964;BME280;59834;52.124;5.422;2023-03-21T05:18:38;101469.56;;;8.18;100.00
71964;BME280;59834;52.124;5.422;2023-03-21T05:21:04;101477.44;;;8.17;100.00
71964;BME280;59834;52.124;5.422;2023-03-21T05:23:36;101460.09;;;8.16;100.00
71964;BME280;59834;52.124;5.422;2023-03-21T05:26:08;101464.47;;;8.15;100.00
71964;BME280;59834;52.124;5.422;2023-03-21T05:28:35;101467.13;;;8.14;100.00
71964;BME280;59834;52.124;5.422;2023-03-21T05:31:03;101465.38;;;8.14;100.00
71964;BME280;59834;52.124;5.422;2023-03-21T05:33:29;101461.91;;;8.14;100.00
71964;BME280;59834;52.124;5.422;2023-03-21T05:35:57;101458.38;;;8.15;100.00
71964;BME280;59834;52.124;5.422;2023-03-21T05:38:24;101455.00;;;8.13;100.00
71964;BME280;59834;52.124;5.422;2023-03-21T05:40:51;101457.50;;;8.16;100.00
71964;BME280;59834;52.124;5.422;2023-03-21T05:43:19;101460.09;;;8.16;100.00
71964;BME280;59834;52.124;5.422;2023-03-21T05:45:45;101454.88;;;8.16;100.00
71964;BME280;59834;52.124;5.422;2023-03-21T05:48:13;101456.66;;;8.15;100.00
71964;BME280;59834;52.124;5.422;2023-03-21T05:50:41;101458.34;;;8.16;100.00
71964;BME280;59834;52.124;5.422;2023-03-21T05:53:07;101448.75;;;8.17;100.00
71964;BME280;59834;52.124;5.422;2023-03-21T05:55:35;101453.81;;;8.20;100.00
71964;BME280;59834;52.124;5.422;2023-03-21T05:58:02;101452.06;;;8.20;100.00
71964;BME280;59834;52.124;5.422;2023-03-21T06:00:28;101447.69;;;8.21;100.00
71964;BME280;59834;52.124;5.422;2023-03-21T06:02:56;101450.25;;;8.22;100.00
71964;BME280;59834;52.124;5.422;2023-03-21T06:05:22;101447.56;;;8.24;100.00
71964;BME280;59834;52.124;5.422;2023-03-21T06:07:49;101450.16;;;8.24;100.00
71964;BME280;59834;52.124;5.422;2023-03-21T06:10:15;101446.72;;;8.23;100.00
71964;BME280;59834;52.124;5.422;2023-03-21T06:12:42;101442.34;;;8.24;100.00
71964;BME280;59834;52.124;5.422;2023-03-21T06:15:09;101447.56;;;8.24;100.00
71964;BME280;59834;52.124;5.422;2023-03-21T06:17:36;101451.88;;;8.25;100.00
71964;BME280;59834;52.124;5.422;2023-03-21T06:20:04;101446.72;;;8.23;100.00
71964;BME280;59834;52.124;5.422;2023-03-21T06:22:33;101451.00;;;8.24;100.00
71964;BME280;59834;52.124;5.422;2023-03-21T06:25:00;101444.06;;;8.25;100.00
71964;BME280;59834;52.124;5.422;2023-03-21T06:27:27;101450.13;;;8.25;100.00
71964;BME280;59834;52.124;5.422;2023-03-21T06:29:53;101449.28;;;8.25;100.00
71964;BME280;59834;52.124;5.422;2023-03-21T06:32:20;101448.28;;;8.27;100.00
71964;BME280;59834;52.124;5.422;2023-03-21T06:34:46;101443.91;;;8.28;100.00
71964;BME280;59834;52.124;5.422;2023-03-21T06:37:13;101448.97;;;8.31;100.00
71964;BME280;59834;52.124;5.422;2023-03-21T06:39:39;101447.16;;;8.33;100.00
71964;BME280;59834;52.124;5.422;2023-03-21T06:42:06;101446.19;;;8.36;100.00
71964;BME280;59834;52.124;5.422;2023-03-21T06:44:33;101445.34;;;8.35;100.00
71964;BME280;59834;52.124;5.422;2023-03-21T06:46:59;101451.31;;;8.37;100.00
71964;BME280;59834;52.124;5.422;2023-03-21T06:49:26;101448.59;;;8.40;100.00
71964;BME280;59834;52.124;5.422;2023-03-21T06:51:53;101455.50;;;8.41;100.00
71964;BME280;59834;52.124;5.422;2023-03-21T06:54:20;101457.22;;;8.42;100.00
71964;BME280;59834;52.124;5.422;2023-03-21T06:56:46;101450.25;;;8.43;100.00
71964;BME280;59834;52.124;5.422;2023-03-21T06:59:13;101450.16;;;8.44;100.00
71964;BME280;59834;52.124;5.422;2023-03-21T07:01:40;101450.94;;;8.46;100.00
71964;BME280;59834;52.124;5.422;2023-03-21T07:04:08;101447.38;;;8.49;100.00
71964;BME280;59834;52.124;5.422;2023-03-21T07:06:35;101449.84;;;8.52;100.00
71964;BME280;59834;52.124;5.422;2023-03-21T07:09:03;101440.28;;;8.51;100.00
71964;BME280;59834;52.124;5.422;2023-03-21T07:11:31;101451.44;;;8.55;100.00
71964;BME280;59834;52.124;5.422;2023-03-21T07:13:57;101446.09;;;8.58;100.00
71964;BME280;59834;52.124;5.422;2023-03-21T07:16:24;101449.47;;;8.60;100.00
71964;BME280;59834;52.124;5.422;2023-03-21T07:18:51;101449.47;;;8.60;100.00
71964;BME280;59834;52.124;5.422;2023-03-21T07:21:17;101445.94;;;8.61;100.00
71964;BME280;59834;52.124;5.422;2023-03-21T07:23:44;101467.66;;;8.61;100.00
71964;BME280;59834;52.124;5.422;2023-03-21T07:26:10;101456.38;;;8.61;100.00
71964;BME280;59834;52.124;5.422;2023-03-21T07:28:37;101454.44;;;8.66;100.00
71964;BME280;59834;52.124;5.422;2023-03-21T07:31:05;101458.59;;;8.70;100.00
71964;BME280;59834;52.124;5.422;2023-03-21T07:33:32;101460.28;;;8.71;100.00
71964;BME280;59834;52.124;5.422;2023-03-21T07:35:59;101462.13;;;8.69;100.00
71964;BME280;59834;52.124;5.422;2023-03-21T07:38:26;101454.44;;;8.66;100.00
71964;BME280;59834;52.124;5.422;2023-03-21T07:40:52;101451.81;;;8.66;100.00
71964;BME280;59834;52.124;5.422;2023-03-21T07:43:19;101453.50;;;8.67;100.00
71964;BME280;59834;52.124;5.422;2023-03-21T07:45:46;101448.06;;;8.71;100.00
71964;BME280;59834;52.124;5.422;2023-03-21T07:48:13;101443.53;;;8.75;100.00
71964;BME280;59834;52.124;5.422;2023-03-21T07:50:40;101442.50;;;8.79;100.00
71964;BME280;59834;52.124;5.422;2023-03-21T07:53:06;101441.44;;;8.83;100.00
71964;BME280;59834;52.124;5.422;2023-03-21T07:55:33;101442.13;;;8.87;100.00
71964;BME280;59834;52.124;5.422;2023-03-21T07:58:02;101441.16;;;8.89;100.00
71964;BME280;59834;52.124;5.422;2023-03-21T08:00:29;101421.81;;;8.93;100.00
71964;BME280;59834;52.124;5.422;2023-03-21T08:02:56;101428.72;;;8.94;100.00
71964;BME280;59834;52.124;5.422;2023-03-21T08:05:35;101424.16;;;9.00;100.00
71964;BME280;59834;52.124;5.422;2023-03-21T08:08:03;101426.75;;;9.00;100.00
71964;BME280;59834;52.124;5.422;2023-03-21T08:10:31;101420.59;;;9.01;100.00
71964;BME280;59834;52.124;5.422;2023-03-21T08:12:58;101425.59;;;9.05;100.00
71964;BME280;59834;52.124;5.422;2023-03-21T08:15:24;101421.09;;;9.09;100.00
71964;BME280;59834;52.124;5.422;2023-03-21T08:17:51;101425.44;;;9.08;100.00
71964;BME280;59834;52.124;5.422;2023-03-21T08:20:20;101428.00;;;9.10;100.00
71964;BME280;59834;52.124;5.422;2023-03-21T08:22:47;101427.91;;;9.11;100.00
71964;BME280;59834;52.124;5.422;2023-03-21T08:25:16;101419.09;;;9.14;100.00
71964;BME280;59834;52.124;5.422;2023-03-21T08:27:44;101415.56;;;9.15;100.00
71964;BME280;59834;52.124;5.422;2023-03-21T08:30:12;101416.25;;;9.18;100.00
71964;BME280;59834;52.124;5.422;2023-03-21T08:32:40;101405.59;;;9.23;100.00
71964;BME280;59834;52.124;5.422;2023-03-21T08:35:14;101408.06;;;9.26;100.00
71964;BME280;59834;52.124;5.422;2023-03-21T08:38:10;101407.22;;;9.26;100.00
71964;BME280;59834;52.124;5.422;2023-03-21T08:41:05;101409.50;;;9.32;100.00
71964;BME280;59834;52.124;5.422;2023-03-21T08:43:51;101410.28;;;9.34;100.00
71964;BME280;59834;52.124;5.422;2023-03-21T08:46:41;101407.69;;;9.34;100.00
71964;BME280;59834;52.124;5.422;2023-03-21T08:50:04;101413.38;;;9.42;100.00
71964;BME280;59834;52.124;5.422;2023-03-21T08:52:35;101401.22;;;9.41;100.00
71964;BME280;59834;52.124;5.422;2023-03-21T08:55:02;101394.22;;;9.41;100.00
71964;BME280;59834;52.124;5.422;2023-03-21T08:57:29;101396.84;;;9.41;100.00
71964;BME280;59834;52.124;5.422;2023-03-21T08:59:56;101390.25;;;9.52;100.00
71964;BME280;59834;52.124;5.422;2023-03-21T09:02:22;101384.25;;;9.67;100.00
71964;BME280;59834;52.124;5.422;2023-03-21T09:04:49;101384.69;;;9.75;100.00
71964;BME280;59834;52.124;5.422;2023-03-21T09:07:20;101379.41;;;9.77;100.00
71964;BME280;59834;52.124;5.422;2023-03-21T09:09:47;101374.06;;;9.78;100.00
71964;BME280;59834;52.124;5.422;2023-03-21T09:12:28;101370.88;;;9.73;100.00
71964;BME280;59834;52.124;5.422;2023-03-21T09:14:54;101367.41;;;9.73;100.00
71964;BME280;59834;52.124;5.422;2023-03-21T09:17:21;101369.84;;;9.76;100.00
71964;BME280;59834;52.124;5.422;2023-03-21T09:19:47;101373.19;;;9.79;100.00
71964;BME280;59834;52.124;5.422;2023-03-21T09:22:16;101361.63;;;9.83;100.00
71964;BME280;59834;52.124;5.422;2023-03-21T09:24:46;101371.56;;;9.77;100.00
71964;BME280;59834;52.124;5.422;2023-03-21T09:27:15;101363.47;;;9.81;100.00
71964;BME280;59834;52.124;5.422;2023-03-21T09:29:50;101350.84;;;9.89;100.00
71964;BME280;59834;52.124;5.422;2023-03-21T09:32:17;101352.38;;;9.94;100.00
71964;BME280;59834;52.124;5.422;2023-03-21T09:34:44;101343.94;;;10.04;100.00
71964;BME280;59834;52.124;5.422;2023-03-21T09:37:11;101341.75;;;10.12;100.00
71964;BME280;59834;52.124;5.422;2023-03-21T09:39:39;101340.03;;;10.13;100.00
71964;BME280;59834;52.124;5.422;2023-03-21T09:42:37;101344.06;;;10.19;100.00
71964;BME280;59834;52.124;5.422;2023-03-21T09:45:35;101338.66;;;10.22;100.00
71964;BME280;59834;52.124;5.422;2023-03-21T09:48:14;101336.44;;;10.31;100.00
71964;BME280;59834;52.124;5.422;2023-03-21T09:50:47;101335.31;;;10.35;100.00
71964;BME280;59834;52.124;5.422;2023-03-21T09:53:27;101324.53;;;10.42;100.00
71964;BME280;59834;52.124;5.422;2023-03-21T09:55:56;101327.31;;;10.38;100.00
71964;BME280;59834;52.124;5.422;2023-03-21T09:58:36;101334.25;;;10.40;100.00
71964;BME280;59834;52.124;5.422;2023-03-21T10:01:13;101328.81;;;10.43;100.00
71964;BME280;59834;52.124;5.422;2023-03-21T10:03:48;101324.47;;;10.43;100.00
71964;BME280;59834;52.124;5.422;2023-03-21T10:06:19;101326.13;;;10.44;100.00
71964;BME280;59834;52.124;5.422;2023-03-21T10:09:02;101329.44;;;10.48;100.00
71964;BME280;59834;52.124;5.422;2023-03-21T10:11:48;101331.72;;;10.54;99.69
71964;BME280;59834;52.124;5.422;2023-03-21T10:16:56;101332.44;;;10.56;99.41
71964;BME280;59834;52.124;5.422;2023-03-21T10:19:23;101334.22;;;10.55;98.54
71964;BME280;59834;52.124;5.422;2023-03-21T10:21:50;101327.16;;;10.57;98.67
71964;BME280;59834;52.124;5.422;2023-03-21T10:24:31;101338.69;;;10.69;97.48
71964;BME280;59834;52.124;5.422;2023-03-21T10:26:59;101337.69;;;10.72;97.83
71964;BME280;59834;52.124;5.422;2023-03-21T10:29:31;101322.13;;;10.84;97.19
71964;BME280;59834;52.124;5.422;2023-03-21T10:31:58;101320.34;;;11.01;96.94
71964;BME280;59834;52.124;5.422;2023-03-21T10:34:35;101318.28;;;11.06;96.72
71964;BME280;59834;52.124;5.422;2023-03-21T10:37:04;101307.19;;;11.17;95.82
71964;BME280;59834;52.124;5.422;2023-03-21T10:39:36;101309.53;;;11.21;94.84
71964;BME280;59834;52.124;5.422;2023-03-21T10:42:03;101305.94;;;11.08;94.69
71964;BME280;59834;52.124;5.422;2023-03-21T10:44:32;101308.28;;;11.13;95.27
71964;BME280;59834;52.124;5.422;2023-03-21T10:47:05;101304.19;;;11.23;95.06
71964;BME280;59834;52.124;5.422;2023-03-21T10:49:37;101297.56;;;11.31;93.18
71964;BME280;59834;52.124;5.422;2023-03-21T10:52:26;101300.22;;;11.46;92.46
71964;BME280;59834;52.124;5.422;2023-03-21T10:55:19;101299.66;;;11.55;92.09
71964;BME280;59834;52.124;5.422;2023-03-21T10:57:47;101298.72;;;11.56;90.57
71964;BME280;59834;52.124;5.422;2023-03-21T11:00:20;101304.91;;;11.55;90.46
71964;BME280;59834;52.124;5.422;2023-03-21T11:02:50;101315.03;;;11.47;89.73
71964;BME280;59834;52.124;5.422;2023-03-21T11:05:32;101313.41;;;11.44;90.35
71964;BME280;59834;52.124;5.422;2023-03-21T11:08:11;101290.84;;;11.56;91.21
71964;BME280;59834;52.124;5.422;2023-03-21T11:13:23;101297.03;;;11.55;89.49
71964;BME280;59834;52.124;5.422;2023-03-21T11:15:55;101293.88;;;11.64;90.45
71964;BME280;59834;52.124;5.422;2023-03-21T11:18:25;101292.94;;;11.79;89.86
71964;BME280;59834;52.124;5.422;2023-03-21T11:20:57;101297.50;;;11.76;89.13
71964;BME280;59834;52.124;5.422;2023-03-21T11:23:26;101294.06;;;11.75;89.06
71964;BME280;59834;52.124;5.422;2023-03-21T11:25:54;101297.34;;;11.79;89.03
71964;BME280;59834;52.124;5.422;2023-03-21T11:28:23;101295.47;;;11.81;88.70
71964;BME280;59834;52.124;5.422;2023-03-21T11:30:55;101298.19;;;12.08;88.74
71964;BME280;59834;52.124;5.422;2023-03-21T11:33:25;101297.31;;;12.22;87.35
71964;BME280;59834;52.124;5.422;2023-03-21T11:36:00;101284.41;;;12.46;86.62
71964;BME280;59834;52.124;5.422;2023-03-21T11:38:31;101283.66;;;12.44;85.73
71964;BME280;59834;52.124;5.422;2023-03-21T11:41:00;101278.84;;;12.38;85.91
71964;BME280;59834;52.124;5.422;2023-03-21T11:43:30;101267.56;;;12.36;85.63
71964;BME280;59834;52.124;5.422;2023-03-21T11:48:34;101270.19;;;12.36;85.68
71964;BME280;59834;52.124;5.422;2023-03-21T11:51:09;101271.53;;;12.29;85.84
71964;BME280;59834;52.124;5.422;2023-03-21T11:56:25;101259.00;;;12.19;84.95
71964;BME280;59834;52.124;5.422;2023-03-21T11:59:13;101266.09;;;12.32;85.84
71964;BME280;59834;52.124;5.422;2023-03-21T12:02:06;101257.66;;;12.26;85.25
71964;BME280;59834;52.124;5.422;2023-03-21T12:04:53;101269.50;;;12.19;85.65
71964;BME280;59834;52.124;5.422;2023-03-21T12:13:03;101256.78;;;11.99;86.48
71964;BME280;59834;52.124;5.422;2023-03-21T12:20:46;101253.25;;;12.27;86.24
71964;BME280;59834;52.124;5.422;2023-03-21T12:26:27;101243.38;;;12.03;86.54
71964;BME280;59834;52.124;5.422;2023-03-21T12:29:34;101247.81;;;11.89;85.68
71964;BME280;59834;52.124;5.422;2023-03-21T12:43:17;101220.84;;;12.14;84.98
71964;BME280;59834;52.124;5.422;2023-03-21T12:45:50;101227.06;;;12.13;85.47
71964;BME280;59834;52.124;5.422;2023-03-21T12:48:27;101226.53;;;12.35;85.35
71964;BME280;59834;52.124;5.422;2023-03-21T12:50:56;101228.84;;;12.39;83.18
71964;BME280;59834;52.124;5.422;2023-03-21T12:56:01;101222.41;;;12.70;81.18
71964;BME280;59834;52.124;5.422;2023-03-21T12:58:30;101216.16;;;12.86;81.24
71964;BME280;59834;52.124;5.422;2023-03-21T13:01:01;101212.19;;;13.18;79.34
71964;BME280;59834;52.124;5.422;2023-03-21T13:03:35;101216.53;;;13.32;80.64
71964;BME280;59834;52.124;5.422;2023-03-21T13:06:08;101210.53;;;13.43;78.38
71964;BME280;59834;52.124;5.422;2023-03-21T13:08:50;101207.16;;;13.41;78.19
71964;BME280;59834;52.124;5.422;2023-03-21T13:11:23;101207.81;;;13.32;76.89
71964;BME280;59834;52.124;5.422;2023-03-21T13:14:09;101196.34;;;13.33;77.81
71964;BME280;59834;52.124;5.422;2023-03-21T13:16:47;101179.81;;;13.31;77.02
71964;BME280;59834;52.124;5.422;2023-03-21T13:19:37;101186.56;;;13.35;75.74
71964;BME280;59834;52.124;5.422;2023-03-21T13:22:25;101191.28;;;13.42;74.72
71964;BME280;59834;52.124;5.422;2023-03-21T13:32:41;101166.66;;;13.31;72.07
71964;BME280;59834;52.124;5.422;2023-03-21T13:35:21;101167.75;;;13.28;72.63
71964;BME280;59834;52.124;5.422;2023-03-21T13:37:57;101169.22;;;13.32;72.86
71964;BME280;59834;52.124;5.422;2023-03-21T13:40:28;101173.72;;;13.43;71.06
71964;BME280;59834;52.124;5.422;2023-03-21T13:43:00;101169.41;;;13.55;70.86
71964;BME280;59834;52.124;5.422;2023-03-21T13:45:44;101169.50;;;13.53;70.45
71964;BME280;59834;52.124;5.422;2023-03-21T13:48:29;101170.31;;;13.54;70.39
71964;BME280;59834;52.124;5.422;2023-03-21T13:51:00;101161.31;;;13.32;70.78
71964;BME280;59834;52.124;5.422;2023-03-21T13:53:38;101163.09;;;13.19;70.94
71964;BME280;59834;52.124;5.422;2023-03-21T14:01:27;101157.75;;;12.95;71.09
71964;BME280;59834;52.124;5.422;2023-03-21T14:04:12;101160.38;;;12.95;71.23
71964;BME280;59834;52.124;5.422;2023-03-21T14:06:55;101153.75;;;13.02;71.95
71964;BME280;59834;52.124;5.422;2023-03-21T14:09:34;101146.81;;;13.01;71.36
71964;BME280;59834;52.124;5.422;2023-03-21T14:12:02;101148.78;;;12.97;71.77
71964;BME280;59834;52.124;5.422;2023-03-21T14:14:39;101137.66;;;12.94;71.74
71964;BME280;59834;52.124;5.422;2023-03-21T14:17:34;101123.88;;;13.03;72.31
71964;BME280;59834;52.124;5.422;2023-03-21T14:20:39;101146.16;;;13.10;72.02
71964;BME280;59834;52.124;5.422;2023-03-21T14:22:59;101139.03;;;13.00;71.83
71964;BME280;59834;52.124;5.422;2023-03-21T14:25:32;101139.34;;;12.82;72.58
71964;BME280;59834;52.124;5.422;2023-03-21T14:28:19;101143.44;;;12.86;73.63
71964;BME280;59834;52.124;5.422;2023-03-21T14:30:51;101136.72;;;12.82;73.03
71964;BME280;59834;52.124;5.422;2023-03-21T14:35:58;101125.38;;;12.94;73.40